sensor_id;sensor_type;location;lat;lon;timestamp;pressure;altitude;pressure_sealevel;temperature;humidity
45040;BME280;30778;53.574;7.770;2023-03-14T00:02:20;98611.56;;;6.80;49.65
45040;BME280;30778;53.574;7.770;2023-03-14T00:04:45;98613.75;;;7.29;48.67
45040;BME280;30778;53.574;7.770;2023-03-14T00:07:12;98612.84;;;6.59;50.36
45040;BME280;30778;53.574;7.770;2023-03-14T00:09:38;98623.97;;;6.61;50.22
45040;BME280;30778;53.574;7.770;2023-03-14T00:12:06;98628.09;;;6.94;49.80
45040;BME280;30778;53.574;7.770;2023-03-14T00:14:33;98627.31;;;7.06;49.19
45040;BME280;30778;53.574;7.770;2023-03-14T00:16:58;98623.56;;;7.24;48.92
45040;BME280;30778;53.574;7.770;2023-03-14T00:19:24;98610.44;;;6.99;49.51
45040;BME280;30778;53.574;7.770;2023-03-14T00:21:49;98603.38;;;6.43;50.56
45040;BME280;30778;53.574;7.770;2023-03-14T00:24:15;98601.25;;;6.93;49.79
45040;BME280;30778;53.574;7.770;2023-03-14T00:26:43;98586.53;;;6.65;50.22
45040;BME280;30778;53.574;7.770;2023-03-14T00:29:08;98577.06;;;6.64;50.59
45040;BME280;30778;53.574;7.770;2023-03-14T00:31:33;98581.50;;;6.62;50.47
45040;BME280;30778;53.574;7.770;2023-03-14T00:34:01;98578.00;;;6.91;49.58
45040;BME280;30778;53.574;7.770;2023-03-14T00:36:26;98575.75;;;6.57;50.58
45040;BME280;30778;53.574;7.770;2023-03-14T00:38:52;98579.19;;;7.00;49.31
45040;BME280;30778;53.574;7.770;2023-03-14T00:41:21;98588.00;;;6.55;50.43
45040;BME280;30778;53.574;7.770;2023-03-14T00:43:48;98581.22;;;6.52;50.44
45040;BME280;30778;53.574;7.770;2023-03-14T00:46:14;98591.19;;;6.60;50.45
45040;BME280;30778;53.574;7.770;2023-03-14T00:48:40;98582.25;;;7.07;49.75
45040;BME280;30778;53.574;7.770;2023-03-14T00:51:07;98590.63;;;6.98;49.87
45040;BME280;30778;53.574;7.770;2023-03-14T00:53:38;98598.41;;;6.69;50.70
45040;BME280;30778;53.574;7.770;2023-03-14T00:56:06;98586.09;;;7.28;49.06
45040;BME280;30778;53.574;7.770;2023-03-14T00:58:32;98589.03;;;6.66;50.38
45040;BME280;30778;53.574;7.770;2023-03-14T01:00:58;98597.84;;;7.07;49.97
45040;BME280;30778;53.574;7.770;2023-03-14T01:03:24;98579.38;;;6.54;50.87
45040;BME280;30778;53.574;7.770;2023-03-14T01:05:50;98589.34;;;7.32;49.27
45040;BME280;30778;53.574;7.770;2023-03-14T01:08:18;98570.41;;;6.60;50.91
45040;BME280;30778;53.574;7.770;2023-03-14T01:10:43;98568.19;;;6.82;50.44
45040;BME280;30778;53.574;7.770;2023-03-14T01:13:09;98551.44;;;7.01;49.57
45040;BME280;30778;53.574;7.770;2023-03-14T01:15:37;98550.81;;;7.24;48.96
45040;BME280;30778;53.574;7.770;2023-03-14T01:18:03;98548.41;;;7.36;49.11
45040;BME280;30778;53.574;7.770;2023-03-14T01:20:29;98556.66;;;7.69;48.10
45040;BME280;30778;53.574;7.770;2023-03-14T01:22:57;98549.31;;;7.35;48.99
45040;BME280;30778;53.574;7.770;2023-03-14T01:25:23;98555.78;;;7.56;48.53
45040;BME280;30778;53.574;7.770;2023-03-14T01:27:49;98541.53;;;7.35;49.20
45040;BME280;30778;53.574;7.770;2023-03-14T01:30:14;98542.53;;;7.86;47.56
45040;BME280;30778;53.574;7.770;2023-03-14T01:32:40;98541.84;;;7.57;48.43
45040;BME280;30778;53.574;7.770;2023-03-14T01:35:06;98543.38;;;7.05;49.98
45040;BME280;30778;53.574;7.770;2023-03-14T01:37:32;98537.75;;;7.53;48.65
45040;BME280;30778;53.574;7.770;2023-03-14T01:39:58;98549.38;;;7.47;48.81
45040;BME280;30778;53.574;7.770;2023-03-14T01:42:24;98556.47;;;7.31;49.16
45040;BME280;30778;53.574;7.770;2023-03-14T01:44:55;98521.72;;;7.46;49.01
45040;BME280;30778;53.574;7.770;2023-03-14T01:47:21;98527.50;;;8.04;47.99
45040;BME280;30778;53.574;7.770;2023-03-14T01:49:59;98530.25;;;7.76;48.17
45040;BME280;30778;53.574;7.770;2023-03-14T01:52:32;98518.53;;;7.56;49.09
45040;BME280;30778;53.574;7.770;2023-03-14T01:55:06;98533.50;;;7.79;48.69
45040;BME280;30778;53.574;7.770;2023-03-14T01:57:33;98529.53;;;7.73;48.74
45040;BME280;30778;53.574;7.770;2023-03-14T02:00:06;98525.78;;;7.78;48.55
45040;BME280;30778;53.574;7.770;2023-03-14T02:03:02;98520.63;;;8.03;48.43
45040;BME280;30778;53.574;7.770;2023-03-14T02:05:34;98519.47;;;7.27;50.27
45040;BME280;30778;53.574;7.770;2023-03-14T02:08:11;98524.78;;;8.06;48.88
45040;BME280;30778;53.574;7.770;2023-03-14T02:10:49;98521.41;;;7.65;50.12
45040;BME280;30778;53.574;7.770;2023-03-14T02:13:21;98512.31;;;7.31;51.52
45040;BME280;30778;53.574;7.770;2023-03-14T02:16:12;98527.94;;;7.44;51.07
45040;BME280;30778;53.574;7.770;2023-03-14T02:18:57;98512.69;;;8.56;48.87
45040;BME280;30778;53.574;7.770;2023-03-14T02:22:08;98519.69;;;8.04;50.74
45040;BME280;30778;53.574;7.770;2023-03-14T02:25:24;98517.09;;;8.04;50.77
45040;BME280;30778;53.574;7.770;2023-03-14T02:27:54;98516.91;;;8.07;51.13
45040;BME280;30778;53.574;7.770;2023-03-14T02:30:22;98510.53;;;7.99;51.42
45040;BME280;30778;53.574;7.770;2023-03-14T02:32:52;98518.50;;;7.43;53.01
45040;BME280;30778;53.574;7.770;2023-03-14T02:35:22;98509.69;;;8.11;51.52
45040;BME280;30778;53.574;7.770;2023-03-14T02:37:54;98507.38;;;7.93;51.80
45040;BME280;30778;53.574;7.770;2023-03-14T02:40:23;98501.47;;;7.79;52.31
45040;BME280;30778;53.574;7.770;2023-03-14T02:42:51;98503.53;;;7.46;53.56
45040;BME280;30778;53.574;7.770;2023-03-14T02:47:48;98500.19;;;7.71;52.99
45040;BME280;30778;53.574;7.770;2023-03-14T02:50:18;98507.38;;;6.99;55.29
45040;BME280;30778;53.574;7.770;2023-03-14T02:52:45;98501.22;;;7.56;53.97
45040;BME280;30778;53.574;7.770;2023-03-14T02:55:10;98500.59;;;7.11;54.59
45040;BME280;30778;53.574;7.770;2023-03-14T02:57:38;98496.97;;;7.41;54.06
45040;BME280;30778;53.574;7.770;2023-03-14T03:00:04;98496.84;;;7.57;53.74
45040;BME280;30778;53.574;7.770;2023-03-14T03:02:33;98496.09;;;7.27;54.48
45040;BME280;30778;53.574;7.770;2023-03-14T03:04:59;98484.59;;;7.17;54.52
45040;BME280;30778;53.574;7.770;2023-03-14T03:07:24;98484.56;;;7.04;55.03
45040;BME280;30778;53.574;7.770;2023-03-14T03:09:51;98494.91;;;7.46;53.83
45040;BME280;30778;53.574;7.770;2023-03-14T03:12:17;98486.75;;;7.38;53.90
45040;BME280;30778;53.574;7.770;2023-03-14T03:14:43;98486.19;;;7.47;54.21
45040;BME280;30778;53.574;7.770;2023-03-14T03:17:09;98486.75;;;6.83;55.92
45040;BME280;30778;53.574;7.770;2023-03-14T03:19:34;98491.75;;;6.86;55.62
45040;BME280;30778;53.574;7.770;2023-03-14T03:22:00;98497.81;;;7.00;54.73
45040;BME280;30778;53.574;7.770;2023-03-14T03:24:26;98485.72;;;7.13;53.44
45040;BME280;30778;53.574;7.770;2023-03-14T03:26:51;98501.69;;;6.80;54.24
45040;BME280;30778;53.574;7.770;2023-03-14T03:29:17;98505.47;;;6.88;53.26
45040;BME280;30778;53.574;7.770;2023-03-14T03:31:44;98494.53;;;7.38;52.21
45040;BME280;30778;53.574;7.770;2023-03-14T03:34:13;98489.50;;;6.95;53.08
45040;BME280;30778;53.574;7.770;2023-03-14T03:36:40;98493.19;;;7.05;53.50
45040;BME280;30778;53.574;7.770;2023-03-14T03:39:05;98493.38;;;7.02;52.84
45040;BME280;30778;53.574;7.770;2023-03-14T03:41:31;98478.03;;;7.39;51.95
45040;BME280;30778;53.574;7.770;2023-03-14T03:43:58;98479.38;;;6.63;53.52
45040;BME280;30778;53.574;7.770;2023-03-14T03:46:24;98475.69;;;7.21;51.93
45040;BME280;30778;53.574;7.770;2023-03-14T03:48:59;98489.22;;;7.26;51.66
45040;BME280;30778;53.574;7.770;2023-03-14T03:51:26;98488.88;;;6.91;52.49
45040;BME280;30778;53.574;7.770;2023-03-14T03:53:51;98481.97;;;6.63;53.69
45040;BME280;30778;53.574;7.770;2023-03-14T03:56:24;98475.69;;;6.94;52.83
45040;BME280;30778;53.574;7.770;2023-03-14T03:58:49;98468.97;;;7.31;51.47
45040;BME280;30778;53.574;7.770;2023-03-14T04:01:16;98474.13;;;6.91;52.64
45040;BME280;30778;53.574;7.770;2023-03-14T04:03:44;98472.06;;;6.97;52.47
45040;BME280;30778;53.574;7.770;2023-03-14T04:06:12;98478.44;;;6.64;53.02
45040;BME280;30778;53.574;7.770;2023-03-14T04:08:40;98478.16;;;7.10;51.80
45040;BME280;30778;53.574;7.770;2023-03-14T04:11:13;98482.66;;;6.94;52.35
45040;BME280;30778;53.574;7.770;2023-03-14T04:14:01;98468.91;;;6.50;53.40
45040;BME280;30778;53.574;7.770;2023-03-14T04:16:28;98490.53;;;6.92;52.04
45040;BME280;30778;53.574;7.770;2023-03-14T04:19:02;98483.66;;;6.49;53.16
45040;BME280;30778;53.574;7.770;2023-03-14T04:21:29;98477.94;;;6.86;52.49
45040;BME280;30778;53.574;7.770;2023-03-14T04:23:56;98483.97;;;6.72;52.95
45040;BME280;30778;53.574;7.770;2023-03-14T04:26:23;98466.75;;;6.14;54.60
45040;BME280;30778;53.574;7.770;2023-03-14T04:28:48;98480.66;;;6.70;53.86
45040;BME280;30778;53.574;7.770;2023-03-14T04:31:20;98490.28;;;6.82;54.34
45040;BME280;30778;53.574;7.770;2023-03-14T04:33:46;98482.88;;;6.76;54.70
45040;BME280;30778;53.574;7.770;2023-03-14T04:36:15;98470.50;;;6.38;55.42
45040;BME280;30778;53.574;7.770;2023-03-14T04:38:41;98476.59;;;6.37;56.05
45040;BME280;30778;53.574;7.770;2023-03-14T04:41:08;98478.81;;;6.43;56.21
45040;BME280;30778;53.574;7.770;2023-03-14T04:43:35;98481.56;;;5.97;57.83
45040;BME280;30778;53.574;7.770;2023-03-14T04:46:05;98478.78;;;6.00;58.24
45040;BME280;30778;53.574;7.770;2023-03-14T04:48:31;98478.47;;;5.76;59.58
45040;BME280;30778;53.574;7.770;2023-03-14T04:50:58;98469.38;;;5.83;59.23
45040;BME280;30778;53.574;7.770;2023-03-14T04:53:24;98477.16;;;5.69;60.03
45040;BME280;30778;53.574;7.770;2023-03-14T04:55:55;98480.09;;;6.22;58.66
45040;BME280;30778;53.574;7.770;2023-03-14T04:58:23;98475.44;;;5.98;59.32
45040;BME280;30778;53.574;7.770;2023-03-14T05:00:50;98458.19;;;5.83;59.70
45040;BME280;30778;53.574;7.770;2023-03-14T05:03:35;98466.75;;;5.55;60.75
45040;BME280;30778;53.574;7.770;2023-03-14T05:06:12;98467.19;;;5.47;61.42
45040;BME280;30778;53.574;7.770;2023-03-14T05:08:54;98478.25;;;5.19;62.65
45040;BME280;30778;53.574;7.770;2023-03-14T05:11:35;98470.81;;;5.29;62.80
45040;BME280;30778;53.574;7.770;2023-03-14T05:14:12;98469.88;;;5.30;61.96
45040;BME280;30778;53.574;7.770;2023-03-14T05:16:44;98474.28;;;5.74;60.89
45040;BME280;30778;53.574;7.770;2023-03-14T05:19:27;98461.25;;;5.75;60.52
45040;BME280;30778;53.574;7.770;2023-03-14T05:22:15;98454.97;;;5.49;61.38
45040;BME280;30778;53.574;7.770;2023-03-14T05:25:10;98455.72;;;5.96;60.32
45040;BME280;30778;53.574;7.770;2023-03-14T05:27:53;98452.84;;;5.25;62.42
45040;BME280;30778;53.574;7.770;2023-03-14T05:30:44;98464.31;;;5.52;61.45
45040;BME280;30778;53.574;7.770;2023-03-14T05:33:30;98449.66;;;5.81;60.20
45040;BME280;30778;53.574;7.770;2023-03-14T05:35:55;98447.81;;;5.83;60.58
45040;BME280;30778;53.574;7.770;2023-03-14T05:38:37;98455.75;;;5.65;61.41
45040;BME280;30778;53.574;7.770;2023-03-14T05:41:25;98448.91;;;5.34;61.75
45040;BME280;30778;53.574;7.770;2023-03-14T05:44:11;98460.81;;;5.97;60.58
45040;BME280;30778;53.574;7.770;2023-03-14T05:46:55;98440.31;;;5.78;60.54
45040;BME280;30778;53.574;7.770;2023-03-14T05:49:33;98454.69;;;5.84;60.80
45040;BME280;30778;53.574;7.770;2023-03-14T05:52:17;98450.03;;;5.75;61.04
45040;BME280;30778;53.574;7.770;2023-03-14T05:55:02;98453.31;;;5.48;61.75
45040;BME280;30778;53.574;7.770;2023-03-14T05:57:53;98453.22;;;5.50;61.87
45040;BME280;30778;53.574;7.770;2023-03-14T06:00:32;98455.25;;;6.03;60.16
45040;BME280;30778;53.574;7.770;2023-03-14T06:03:14;98451.22;;;5.55;61.66
45040;BME280;30778;53.574;7.770;2023-03-14T06:05:43;98435.53;;;5.42;61.86
45040;BME280;30778;53.574;7.770;2023-03-14T06:08:09;98436.97;;;5.32;62.56
45040;BME280;30778;53.574;7.770;2023-03-14T06:10:36;98445.72;;;5.15;63.36
45040;BME280;30778;53.574;7.770;2023-03-14T06:13:02;98440.59;;;5.74;61.96
45040;BME280;30778;53.574;7.770;2023-03-14T06:15:30;98436.69;;;5.66;62.03
45040;BME280;30778;53.574;7.770;2023-03-14T06:17:55;98436.66;;;5.52;62.38
45040;BME280;30778;53.574;7.770;2023-03-14T06:20:22;98435.28;;;5.61;62.00
45040;BME280;30778;53.574;7.770;2023-03-14T06:22:47;98439.50;;;5.78;62.08
45040;BME280;30778;53.574;7.770;2023-03-14T06:25:14;98445.59;;;5.77;61.87
45040;BME280;30778;53.574;7.770;2023-03-14T06:27:43;98442.97;;;5.48;62.25
45040;BME280;30778;53.574;7.770;2023-03-14T06:30:09;98447.69;;;5.56;62.39
45040;BME280;30778;53.574;7.770;2023-03-14T06:32:36;98443.66;;;5.95;61.24
45040;BME280;30778;53.574;7.770;2023-03-14T06:35:05;98449.38;;;5.41;62.62
45040;BME280;30778;53.574;7.770;2023-03-14T06:37:35;98452.53;;;5.76;61.87
45040;BME280;30778;53.574;7.770;2023-03-14T06:40:01;98449.06;;;5.17;63.94
45040;BME280;30778;53.574;7.770;2023-03-14T06:42:59;98450.84;;;5.31;63.34
45040;BME280;30778;53.574;7.770;2023-03-14T06:45:27;98445.91;;;5.56;62.86
45040;BME280;30778;53.574;7.770;2023-03-14T06:47:54;98450.72;;;5.48;62.83
45040;BME280;30778;53.574;7.770;2023-03-14T06:50:24;98460.63;;;5.25;63.58
45040;BME280;30778;53.574;7.770;2023-03-14T06:52:49;98468.13;;;5.46;62.96
45040;BME280;30778;53.574;7.770;2023-03-14T06:55:20;98461.22;;;5.31;62.78
45040;BME280;30778;53.574;7.770;2023-03-14T06:57:46;98470.34;;;5.52;62.46
45040;BME280;30778;53.574;7.770;2023-03-14T07:00:13;98475.91;;;5.91;61.18
45040;BME280;30778;53.574;7.770;2023-03-14T07:02:39;98479.75;;;5.83;61.55
45040;BME280;30778;53.574;7.770;2023-03-14T07:05:07;98486.88;;;5.19;63.60
45040;BME280;30778;53.574;7.770;2023-03-14T07:07:33;98492.22;;;5.62;61.93
45040;BME280;30778;53.574;7.770;2023-03-14T07:09:59;98493.81;;;5.35;62.97
45040;BME280;30778;53.574;7.770;2023-03-14T07:12:26;98500.97;;;5.30;62.84
45040;BME280;30778;53.574;7.770;2023-03-14T07:14:52;98518.09;;;5.48;62.19
45040;BME280;30778;53.574;7.770;2023-03-14T07:17:17;98523.09;;;5.51;62.59
45040;BME280;30778;53.574;7.770;2023-03-14T07:19:43;98539.00;;;5.29;63.05
45040;BME280;30778;53.574;7.770;2023-03-14T07:22:08;98591.22;;;5.21;61.76
45040;BME280;30778;53.574;7.770;2023-03-14T07:24:34;98605.84;;;4.38;59.30
45040;BME280;30778;53.574;7.770;2023-03-14T07:27:00;98621.22;;;3.72;59.94
45040;BME280;30778;53.574;7.770;2023-03-14T07:29:26;98635.72;;;3.55;58.91
45040;BME280;30778;53.574;7.770;2023-03-14T07:31:52;98657.03;;;2.22;60.66
45040;BME280;30778;53.574;7.770;2023-03-14T07:34:19;98661.78;;;1.88;61.54
45040;BME280;30778;53.574;7.770;2023-03-14T07:36:45;98678.69;;;1.51;60.30
45040;BME280;30778;53.574;7.770;2023-03-14T07:39:12;98687.56;;;1.43;59.79
45040;BME280;30778;53.574;7.770;2023-03-14T07:42:00;98704.06;;;1.14;61.33
45040;BME280;30778;53.574;7.770;2023-03-14T07:44:26;98703.66;;;0.76;61.73
45040;BME280;30778;53.574;7.770;2023-03-14T07:46:52;98729.19;;;0.82;60.80
45040;BME280;30778;53.574;7.770;2023-03-14T07:49:17;98742.44;;;0.43;61.12
45040;BME280;30778;53.574;7.770;2023-03-14T07:51:43;98766.97;;;0.80;60.13
45040;BME280;30778;53.574;7.770;2023-03-14T07:54:10;98782.09;;;0.36;61.38
45040;BME280;30778;53.574;7.770;2023-03-14T07:56:35;98791.91;;;-0.05;61.99
45040;BME280;30778;53.574;7.770;2023-03-14T07:59:01;98800.38;;;0.26;60.57
45040;BME280;30778;53.574;7.770;2023-03-14T08:01:26;98815.56;;;0.04;60.78
45040;BME280;30778;53.574;7.770;2023-03-14T08:03:52;98829.91;;;-0.17;60.65
45040;BME280;30778;53.574;7.770;2023-03-14T08:06:17;98829.50;;;-0.32;60.69
45040;BME280;30778;53.574;7.770;2023-03-14T08:08:43;98845.34;;;-0.49;60.49
45040;BME280;30778;53.574;7.770;2023-03-14T08:11:08;98866.78;;;-0.85;61.90
45040;BME280;30778;53.574;7.770;2023-03-14T08:13:35;98872.69;;;-0.81;61.57
45040;BME280;30778;53.574;7.770;2023-03-14T08:16:01;98886.13;;;-0.07;60.02
45040;BME280;30778;53.574;7.770;2023-03-14T08:18:27;98893.09;;;-0.13;60.51
45040;BME280;30778;53.574;7.770;2023-03-14T08:20:52;98910.09;;;-0.40;61.63
45040;BME280;30778;53.574;7.770;2023-03-14T08:23:17;98911.81;;;-0.07;60.05
45040;BME280;30778;53.574;7.770;2023-03-14T08:25:43;98924.56;;;-0.04;59.87
45040;BME280;30778;53.574;7.770;2023-03-14T08:28:08;98931.97;;;-0.25;60.48
45040;BME280;30778;53.574;7.770;2023-03-14T08:30:34;98938.06;;;-0.29;60.20
45040;BME280;30778;53.574;7.770;2023-03-14T08:33:00;98935.28;;;-0.21;60.57
45040;BME280;30778;53.574;7.770;2023-03-14T08:35:26;98937.53;;;-0.09;60.85
45040;BME280;30778;53.574;7.770;2023-03-14T08:37:52;98939.66;;;0.08;60.35
45040;BME280;30778;53.574;7.770;2023-03-14T08:40:18;98953.44;;;0.04;60.97
45040;BME280;30778;53.574;7.770;2023-03-14T08:42:44;98944.28;;;0.25;60.70
45040;BME280;30778;53.574;7.770;2023-03-14T08:45:16;98957.94;;;0.27;60.33
45040;BME280;30778;53.574;7.770;2023-03-14T08:47:43;98963.03;;;0.58;60.16
45040;BME280;30778;53.574;7.770;2023-03-14T08:50:09;98982.94;;;0.52;61.29
45040;BME280;30778;53.574;7.770;2023-03-14T08:52:35;99003.59;;;0.48;60.79
45040;BME280;30778;53.574;7.770;2023-03-14T08:55:03;99015.00;;;0.40;60.31
45040;BME280;30778;53.574;7.770;2023-03-14T08:57:29;99011.03;;;0.59;59.96
45040;BME280;30778;53.574;7.770;2023-03-14T08:59:56;99005.13;;;0.24;61.19
45040;BME280;30778;53.574;7.770;2023-03-14T09:02:23;99018.97;;;0.50;59.76
45040;BME280;30778;53.574;7.770;2023-03-14T09:04:52;99035.44;;;1.04;58.93
45040;BME280;30778;53.574;7.770;2023-03-14T09:07:19;99042.34;;;0.72;59.85
45040;BME280;30778;53.574;7.770;2023-03-14T09:09:45;99049.47;;;1.22;59.59
45040;BME280;30778;53.574;7.770;2023-03-14T09:12:10;99048.44;;;1.82;58.03
45040;BME280;30778;53.574;7.770;2023-03-14T09:14:36;99053.50;;;1.85;57.43
45040;BME280;30778;53.574;7.770;2023-03-14T09:17:03;99052.09;;;1.75;57.36
45040;BME280;30778;53.574;7.770;2023-03-14T09:19:29;99058.56;;;2.13;55.08
45040;BME280;30778;53.574;7.770;2023-03-14T09:21:54;99070.63;;;2.62;54.91
45040;BME280;30778;53.574;7.770;2023-03-14T09:24:20;99067.84;;;2.91;53.82
45040;BME280;30778;53.574;7.770;2023-03-14T09:26:46;99085.56;;;3.01;53.40
45040;BME280;30778;53.574;7.770;2023-03-14T09:29:11;99092.28;;;2.81;52.70
45040;BME280;30778;53.574;7.770;2023-03-14T09:31:37;99112.72;;;2.62;52.85
45040;BME280;30778;53.574;7.770;2023-03-14T09:34:02;99105.22;;;2.80;53.33
45040;BME280;30778;53.574;7.770;2023-03-14T09:36:28;99117.47;;;2.74;52.99
45040;BME280;30778;53.574;7.770;2023-03-14T09:38:53;99127.47;;;3.07;52.36
45040;BME280;30778;53.574;7.770;2023-03-14T09:46:29;99147.97;;;3.35;51.08
45040;BME280;30778;53.574;7.770;2023-03-14T09:48:55;99151.31;;;3.83;49.82
45040;BME280;30778;53.574;7.770;2023-03-14T09:51:21;99149.03;;;4.38;49.15
45040;BME280;30778;53.574;7.770;2023-03-14T09:53:50;99147.06;;;4.02;49.45
45040;BME280;30778;53.574;7.770;2023-03-14T09:56:23;99156.53;;;4.86;47.97
45040;BME280;30778;53.574;7.770;2023-03-14T09:59:02;99166.59;;;4.93;47.99
45040;BME280;30778;53.574;7.770;2023-03-14T10:01:30;99177.38;;;5.03;47.58
45040;BME280;30778;53.574;7.770;2023-03-14T10:04:00;99179.38;;;4.96;45.50
45040;BME280;30778;53.574;7.770;2023-03-14T10:06:29;99193.41;;;4.29;46.99
45040;BME280;30778;53.574;7.770;2023-03-14T10:08:55;99204.16;;;4.18;48.28
45040;BME280;30778;53.574;7.770;2023-03-14T10:11:22;99211.47;;;4.09;47.61
45040;BME280;30778;53.574;7.770;2023-03-14T10:16:13;99223.72;;;4.26;48.66
45040;BME280;30778;53.574;7.770;2023-03-14T10:18:44;99228.69;;;4.10;47.69
45040;BME280;30778;53.574;7.770;2023-03-14T10:21:30;99246.06;;;3.83;49.08
45040;BME280;30778;53.574;7.770;2023-03-14T10:24:08;99264.91;;;3.39;49.55
45040;BME280;30778;53.574;7.770;2023-03-14T10:26:34;99267.94;;;3.50;49.66
45040;BME280;30778;53.574;7.770;2023-03-14T10:29:08;99273.88;;;3.99;48.95
45040;BME280;30778;53.574;7.770;2023-03-14T10:31:53;99272.50;;;4.13;48.15
45040;BME280;30778;53.574;7.770;2023-03-14T10:34:29;99288.09;;;4.76;47.14
45040;BME280;30778;53.574;7.770;2023-03-14T10:37:06;99292.78;;;4.46;45.80
45040;BME280;30778;53.574;7.770;2023-03-14T10:39:44;99302.28;;;4.88;45.48
45040;BME280;30778;53.574;7.770;2023-03-14T10:42:27;99317.81;;;3.76;43.25
45040;BME280;30778;53.574;7.770;2023-03-14T10:47:48;99342.84;;;3.99;42.45
45040;BME280;30778;53.574;7.770;2023-03-14T10:50:24;99350.94;;;3.90;42.45
45040;BME280;30778;53.574;7.770;2023-03-14T10:52:52;99353.53;;;4.12;41.37
45040;BME280;30778;53.574;7.770;2023-03-14T10:55:18;99367.28;;;3.90;41.83
45040;BME280;30778;53.574;7.770;2023-03-14T10:57:44;99370.19;;;3.81;41.53
45040;BME280;30778;53.574;7.770;2023-03-14T11:00:18;99389.63;;;3.68;39.67
45040;BME280;30778;53.574;7.770;2023-03-14T11:02:59;99388.53;;;3.98;40.06
45040;BME280;30778;53.574;7.770;2023-03-14T11:05:34;99390.88;;;4.28;40.19
45040;BME280;30778;53.574;7.770;2023-03-14T11:08:20;99402.97;;;4.95;38.13
45040;BME280;30778;53.574;7.770;2023-03-14T11:10:51;99410.78;;;4.94;38.72
45040;BME280;30778;53.574;7.770;2023-03-14T11:13:27;99423.59;;;4.53;37.63
45040;BME280;30778;53.574;7.770;2023-03-14T11:18:51;99440.97;;;4.49;35.98
45040;BME280;30778;53.574;7.770;2023-03-14T11:21:46;99450.97;;;5.04;34.89
45040;BME280;30778;53.574;7.770;2023-03-14T11:27:00;99461.63;;;4.96;34.80
45040;BME280;30778;53.574;7.770;2023-03-14T11:29:41;99477.31;;;5.36;33.44
45040;BME280;30778;53.574;7.770;2023-03-14T11:35:30;99495.59;;;5.11;32.44
45040;BME280;30778;53.574;7.770;2023-03-14T11:38:29;99497.88;;;5.18;31.80
45040;BME280;30778;53.574;7.770;2023-03-14T11:40:57;99493.13;;;5.93;31.25
45040;BME280;30778;53.574;7.770;2023-03-14T11:43:32;99495.63;;;5.94;31.74
45040;BME280;30778;53.574;7.770;2023-03-14T11:48:45;99529.13;;;5.36;32.54
45040;BME280;30778;53.574;7.770;2023-03-14T11:51:23;99532.66;;;4.89;33.12
45040;BME280;30778;53.574;7.770;2023-03-14T11:54:01;99536.31;;;4.60;34.05
45040;BME280;30778;53.574;7.770;2023-03-14T11:56:59;99545.31;;;4.25;35.60
45040;BME280;30778;53.574;7.770;2023-03-14T11:59:37;99555.22;;;3.87;35.89
45040;BME280;30778;53.574;7.770;2023-03-14T12:05:25;99548.09;;;5.14;34.38
45040;BME280;30778;53.574;7.770;2023-03-14T12:10:22;99559.19;;;5.84;29.90
45040;BME280;30778;53.574;7.770;2023-03-14T12:12:48;99561.44;;;5.92;30.00
45040;BME280;30778;53.574;7.770;2023-03-14T12:15:21;99581.47;;;5.88;31.33
45040;BME280;30778;53.574;7.770;2023-03-14T12:17:54;99595.78;;;5.54;31.49
45040;BME280;30778;53.574;7.770;2023-03-14T12:20:24;99591.63;;;5.50;31.63
45040;BME280;30778;53.574;7.770;2023-03-14T12:22:56;99610.34;;;4.89;31.25
45040;BME280;30778;53.574;7.770;2023-03-14T12:25:29;99607.34;;;4.51;32.44
45040;BME280;30778;53.574;7.770;2023-03-14T12:30:39;99626.94;;;4.33;33.36
45040;BME280;30778;53.574;7.770;2023-03-14T12:35:50;99646.78;;;3.51;34.67
45040;BME280;30778;53.574;7.770;2023-03-14T12:43:31;99656.38;;;4.29;33.27
45040;BME280;30778;53.574;7.770;2023-03-14T12:48:37;99670.34;;;4.50;30.58
45040;BME280;30778;53.574;7.770;2023-03-14T12:51:12;99671.91;;;5.52;29.79
45040;BME280;30778;53.574;7.770;2023-03-14T12:56:45;99698.34;;;5.38;33.06
45040;BME280;30778;53.574;7.770;2023-03-14T13:04:50;99722.81;;;4.00;37.28
45040;BME280;30778;53.574;7.770;2023-03-14T13:07:32;99738.44;;;3.38;37.35
45040;BME280;30778;53.574;7.770;2023-03-14T13:15:38;99755.84;;;3.31;36.78
45040;BME280;30778;53.574;7.770;2023-03-14T13:18:16;99750.59;;;4.75;35.26
45040;BME280;30778;53.574;7.770;2023-03-14T13:20:49;99762.91;;;5.44;34.43
45040;BME280;30778;53.574;7.770;2023-03-14T13:25:49;99776.97;;;5.13;32.00
45040;BME280;30778;53.574;7.770;2023-03-14T13:28:16;99766.94;;;5.28;32.61
45040;BME280;30778;53.574;7.770;2023-03-14T13:30:44;99768.19;;;5.41;31.33
45040;BME280;30778;53.574;7.770;2023-03-14T13:33:16;99779.13;;;4.47;32.07
45040;BME280;30778;53.574;7.770;2023-03-14T13:35:45;99784.88;;;4.57;31.86
45040;BME280;30778;53.574;7.770;2023-03-14T13:38:20;99800.75;;;5.24;30.97
45040;BME280;30778;53.574;7.770;2023-03-14T13:40:47;99797.13;;;5.54;30.58
45040;BME280;30778;53.574;7.770;2023-03-14T13:43:17;99808.03;;;5.38;31.07
45040;BME280;30778;53.574;7.770;2023-03-14T13:45:45;99800.81;;;6.17;30.56
45040;BME280;30778;53.574;7.770;2023-03-14T13:48:12;99817.66;;;6.05;30.72
45040;BME280;30778;53.574;7.770;2023-03-14T13:50:45;99824.56;;;6.06;29.80
45040;BME280;30778;53.574;7.770;2023-03-14T13:53:11;99835.69;;;5.38;30.89
45040;BME280;30778;53.574;7.770;2023-03-14T13:55:37;99831.38;;;4.85;31.28
45040;BME280;30778;53.574;7.770;2023-03-14T13:58:02;99836.50;;;4.32;32.63
45040;BME280;30778;53.574;7.770;2023-03-14T14:00:28;99843.06;;;3.54;33.41
45040;BME280;30778;53.574;7.770;2023-03-14T14:02:56;99854.78;;;3.68;32.15
45040;BME280;30778;53.574;7.770;2023-03-14T14:05:23;99851.38;;;4.25;32.70
45040;BME280;30778;53.574;7.770;2023-03-14T14:07:51;99864.09;;;4.89;31.27
45040;BME280;30778;53.574;7.770;2023-03-14T14:10:18;99866.13;;;4.23;32.27
45040;BME280;30778;53.574;7.770;2023-03-14T14:15:18;99908.81;;;3.75;33.34
45040;BME280;30778;53.574;7.770;2023-03-14T14:17:52;99923.16;;;3.54;32.90
45040;BME280;30778;53.574;7.770;2023-03-14T14:22:57;99923.59;;;3.37;33.22
45040;BME280;30778;53.574;7.770;2023-03-14T14:25:23;99928.63;;;4.08;32.87
45040;BME280;30778;53.574;7.770;2023-03-14T14:27:49;99930.78;;;3.92;32.00
45040;BME280;30778;53.574;7.770;2023-03-14T14:32:46;99946.78;;;4.66;31.42
45040;BME280;30778;53.574;7.770;2023-03-14T14:35:26;99946.88;;;4.03;31.65